sensor_id;sensor_type;location;lat;lon;timestamp;pressure;altitude;pressure_sealevel;temperature;humidity
49949;BME280;35840;45.982;8.890;2023-12-04T00:01:44;99081.84;;;0.07;68.40
49949;BME280;35840;45.982;8.890;2023-12-04T00:04:13;99104.44;;;0.33;68.01
49949;BME280;35840;45.982;8.890;2023-12-04T00:06:41;99107.81;;;0.32;68.21
49949;BME280;35840;45.982;8.890;2023-12-04T00:09:08;99098.56;;;0.28;68.51
49949;BME280;35840;45.982;8.890;2023-12-04T00:11:35;99095.22;;;0.21;67.85
49949;BME280;35840;45.982;8.890;2023-12-04T00:14:02;99094.38;;;0.24;68.58
49949;BME280;35840;45.982;8.890;2023-12-04T00:16:29;99078.41;;;0.19;68.11
49949;BME280;35840;45.982;8.890;2023-12-04T00:18:56;99095.22;;;0.24;68.39
49949;BME280;35840;45.982;8.890;2023-12-04T00:21:23;99090.19;;;0.16;67.95
49949;BME280;35840;45.982;8.890;2023-12-04T00:23:50;99096.06;;;0.22;68.39
49949;BME280;35840;45.982;8.890;2023-12-04T00:26:17;99091.91;;;0.16;68.79
49949;BME280;35840;45.982;8.890;2023-12-04T00:28:44;99090.19;;;0.18;69.07
49949;BME280;35840;45.982;8.890;2023-12-04T00:31:11;99092.69;;;0.21;68.76
49949;BME280;35840;45.982;8.890;2023-12-04T00:33:37;99084.25;;;0.24;68.08
49949;BME280;35840;45.982;8.890;2023-12-04T00:36:05;99083.41;;;0.25;68.36
49949;BME280;35840;45.982;8.890;2023-12-04T00:38:31;99083.41;;;0.25;67.75
49949;BME280;35840;45.982;8.890;2023-12-04T00:40:58;99053.13;;;0.15;67.48
49949;BME280;35840;45.982;8.890;2023-12-04T00:43:25;99072.44;;;0.29;67.43
49949;BME280;35840;45.982;8.890;2023-12-04T00:45:52;99071.59;;;0.25;68.78
49949;BME280;35840;45.982;8.890;2023-12-04T00:48:19;99060.66;;;0.25;68.25
49949;BME280;35840;45.982;8.890;2023-12-04T00:50:46;99063.28;;;0.08;68.96
49949;BME280;35840;45.982;8.890;2023-12-04T00:53:12;99065.03;;;-0.01;68.52
49949;BME280;35840;45.982;8.890;2023-12-04T00:55:39;99081.81;;;0.08;68.66
49949;BME280;35840;45.982;8.890;2023-12-04T00:58:06;99075.09;;;0.10;69.32
49949;BME280;35840;45.982;8.890;2023-12-04T01:00:33;99063.28;;;0.09;68.35
49949;BME280;35840;45.982;8.890;2023-12-04T01:03:00;99068.28;;;0.19;68.96
49949;BME280;35840;45.982;8.890;2023-12-04T01:05:26;99048.94;;;0.14;68.07
49949;BME280;35840;45.982;8.890;2023-12-04T01:07:53;99061.56;;;0.16;68.32
49949;BME280;35840;45.982;8.890;2023-12-04T01:10:20;99058.22;;;0.11;68.59
49949;BME280;35840;45.982;8.890;2023-12-04T01:12:47;99062.47;;;0.04;69.16
49949;BME280;35840;45.982;8.890;2023-12-04T01:15:14;99063.31;;;0.06;69.43
49949;BME280;35840;45.982;8.890;2023-12-04T01:17:41;99065.91;;;-0.05;69.29
49949;BME280;35840;45.982;8.890;2023-12-04T01:20:09;99085.19;;;0.06;69.44
49949;BME280;35840;45.982;8.890;2023-12-04T01:22:36;99081.03;;;-0.02;69.64
49949;BME280;35840;45.982;8.890;2023-12-04T01:25:03;99074.28;;;0.02;69.06
49949;BME280;35840;45.982;8.890;2023-12-04T01:27:30;99085.22;;;0.09;68.48
49949;BME280;35840;45.982;8.890;2023-12-04T01:29:57;99054.97;;;-0.07;69.23
49949;BME280;35840;45.982;8.890;2023-12-04T01:32:24;99083.63;;;-0.12;69.58
49949;BME280;35840;45.982;8.890;2023-12-04T01:34:52;99076.97;;;-0.23;69.95
49949;BME280;35840;45.982;8.890;2023-12-04T01:37:19;99078.59;;;-0.12;70.13
49949;BME280;35840;45.982;8.890;2023-12-04T01:39:46;99071.81;;;-0.09;70.06
49949;BME280;35840;45.982;8.890;2023-12-04T01:42:13;99048.31;;;-0.25;69.60
49949;BME280;35840;45.982;8.890;2023-12-04T01:44:40;99076.88;;;-0.10;69.46
49949;BME280;35840;45.982;8.890;2023-12-04T01:47:06;99074.38;;;-0.13;69.70
49949;BME280;35840;45.982;8.890;2023-12-04T01:49:34;99081.09;;;-0.08;69.02
49949;BME280;35840;45.982;8.890;2023-12-04T01:52:01;99079.41;;;-0.12;68.88
49949;BME280;35840;45.982;8.890;2023-12-04T01:54:29;99082.78;;;-0.14;69.36
49949;BME280;35840;45.982;8.890;2023-12-04T01:56:56;99085.31;;;-0.13;69.50
49949;BME280;35840;45.982;8.890;2023-12-04T01:59:25;99077.81;;;-0.24;69.67
49949;BME280;35840;45.982;8.890;2023-12-04T02:01:52;99087.06;;;-0.26;70.19
49949;BME280;35840;45.982;8.890;2023-12-04T02:04:19;99083.72;;;-0.29;69.81
49949;BME280;35840;45.982;8.890;2023-12-04T02:06:46;99052.63;;;-0.47;70.15
49949;BME280;35840;45.982;8.890;2023-12-04T02:09:13;99093.75;;;-0.19;71.10
49949;BME280;35840;45.982;8.890;2023-12-04T02:11:43;99096.31;;;-0.15;70.38
49949;BME280;35840;45.982;8.890;2023-12-04T02:14:09;99090.31;;;-0.02;69.35
49949;BME280;35840;45.982;8.890;2023-12-04T02:16:40;99070.09;;;-0.02;69.01
49949;BME280;35840;45.982;8.890;2023-12-04T02:19:13;99073.44;;;-0.02;69.53
49949;BME280;35840;45.982;8.890;2023-12-04T02:21:40;99075.97;;;-0.02;70.05
49949;BME280;35840;45.982;8.890;2023-12-04T02:24:07;99082.72;;;-0.02;70.10
49949;BME280;35840;45.982;8.890;2023-12-04T02:26:44;99076.16;;;-0.32;72.24
49949;BME280;35840;45.982;8.890;2023-12-04T02:29:19;99080.47;;;-0.56;73.39
49949;BME280;35840;45.982;8.890;2023-12-04T02:31:50;99073.69;;;-0.43;73.45
49949;BME280;35840;45.982;8.890;2023-12-04T02:34:18;99084.53;;;-0.26;73.15
49949;BME280;35840;45.982;8.890;2023-12-04T02:36:46;99070.19;;;-0.19;72.32
49949;BME280;35840;45.982;8.890;2023-12-04T02:39:15;99074.34;;;-0.12;71.33
49949;BME280;35840;45.982;8.890;2023-12-04T02:41:41;99059.19;;;-0.12;71.93
49949;BME280;35840;45.982;8.890;2023-12-04T02:44:08;99079.38;;;-0.04;71.51
49949;BME280;35840;45.982;8.890;2023-12-04T02:46:35;99081.00;;;0.05;71.19
49949;BME280;35840;45.982;8.890;2023-12-04T02:49:02;99083.56;;;-0.02;71.54
49949;BME280;35840;45.982;8.890;2023-12-04T02:51:29;99075.25;;;-0.19;73.57
49949;BME280;35840;45.982;8.890;2023-12-04T02:53:56;99080.25;;;-0.07;72.82
49949;BME280;35840;45.982;8.890;2023-12-04T02:56:22;99076.00;;;0.00;72.32
49949;BME280;35840;45.982;8.890;2023-12-04T02:58:49;99062.50;;;0.01;72.65
49949;BME280;35840;45.982;8.890;2023-12-04T03:01:16;99073.34;;;0.20;71.56
49949;BME280;35840;45.982;8.890;2023-12-04T03:03:43;99058.16;;;0.22;71.06
49949;BME280;35840;45.982;8.890;2023-12-04T03:06:10;99059.78;;;0.29;70.94
49949;BME280;35840;45.982;8.890;2023-12-04T03:08:37;99041.28;;;0.22;71.57
49949;BME280;35840;45.982;8.890;2023-12-04T03:11:04;99048.06;;;0.20;71.97
49949;BME280;35840;45.982;8.890;2023-12-04T03:13:31;99049.81;;;0.06;74.20
49949;BME280;35840;45.982;8.890;2023-12-04T03:15:58;99048.19;;;-0.05;74.89
49949;BME280;35840;45.982;8.890;2023-12-04T03:18:25;99045.75;;;-0.19;75.28
49949;BME280;35840;45.982;8.890;2023-12-04T03:20:53;99043.22;;;-0.12;76.21
49949;BME280;35840;45.982;8.890;2023-12-04T03:23:20;99049.88;;;-0.02;75.58
49949;BME280;35840;45.982;8.890;2023-12-04T03:25:47;99034.66;;;0.06;74.55
49949;BME280;35840;45.982;8.890;2023-12-04T03:28:13;99032.97;;;0.08;74.56
49949;BME280;35840;45.982;8.890;2023-12-04T03:30:42;99038.03;;;0.06;74.27
49949;BME280;35840;45.982;8.890;2023-12-04T03:33:12;99042.25;;;0.04;74.25
49949;BME280;35840;45.982;8.890;2023-12-04T03:35:39;99039.72;;;0.04;74.68
49949;BME280;35840;45.982;8.890;2023-12-04T03:38:06;99037.97;;;0.14;74.26
49949;BME280;35840;45.982;8.890;2023-12-04T03:40:33;99035.41;;;0.15;74.78
49949;BME280;35840;45.982;8.890;2023-12-04T03:43:00;99038.00;;;0.11;74.77
49949;BME280;35840;45.982;8.890;2023-12-04T03:45:27;99014.50;;;-0.04;74.99
49949;BME280;35840;45.982;8.890;2023-12-04T03:47:54;99033.75;;;0.11;75.26
49949;BME280;35840;45.982;8.890;2023-12-04T03:50:21;99025.38;;;0.06;74.77
49949;BME280;35840;45.982;8.890;2023-12-04T03:52:48;99037.97;;;0.14;74.42
49949;BME280;35840;45.982;8.890;2023-12-04T03:55:14;99011.00;;;0.11;74.49
49949;BME280;35840;45.982;8.890;2023-12-04T03:57:41;99019.47;;;0.10;74.84
49949;BME280;35840;45.982;8.890;2023-12-04T04:00:09;99011.91;;;0.07;75.19
49949;BME280;35840;45.982;8.890;2023-12-04T04:02:39;99004.28;;;0.12;75.39
49949;BME280;35840;45.982;8.890;2023-12-04T04:05:07;98981.59;;;0.03;75.02
49949;BME280;35840;45.982;8.890;2023-12-04T04:07:34;98996.66;;;0.16;74.51
49949;BME280;35840;45.982;8.890;2023-12-04T04:10:02;99002.44;;;0.29;74.16
49949;BME280;35840;45.982;8.890;2023-12-04T04:12:30;98991.47;;;0.32;74.05
49949;BME280;35840;45.982;8.890;2023-12-04T04:14:58;98995.69;;;0.33;73.46
49949;BME280;35840;45.982;8.890;2023-12-04T04:17:25;99000.75;;;0.28;74.62
49949;BME280;35840;45.982;8.890;2023-12-04T04:19:55;98981.44;;;0.20;74.51
49949;BME280;35840;45.982;8.890;2023-12-04T04:22:22;98978.28;;;-0.04;75.75
49949;BME280;35840;45.982;8.890;2023-12-04T04:24:49;98991.69;;;0.03;76.01
49949;BME280;35840;45.982;8.890;2023-12-04T04:27:16;98997.59;;;0.05;76.18
49949;BME280;35840;45.982;8.890;2023-12-04T04:29:43;99000.09;;;0.09;75.04
49949;BME280;35840;45.982;8.890;2023-12-04T04:32:10;99005.09;;;0.15;74.87
49949;BME280;35840;45.982;8.890;2023-12-04T04:34:39;98992.47;;;0.11;75.98
49949;BME280;35840;45.982;8.890;2023-12-04T04:37:06;98998.38;;;0.11;76.29
49949;BME280;35840;45.982;8.890;2023-12-04T04:39:32;99000.88;;;0.16;76.52
49949;BME280;35840;45.982;8.890;2023-12-04T04:41:59;99001.84;;;-0.01;76.93
49949;BME280;35840;45.982;8.890;2023-12-04T04:44:26;99011.16;;;-0.10;78.16
49949;BME280;35840;45.982;8.890;2023-12-04T04:46:53;99011.13;;;-0.01;78.09
49949;BME280;35840;45.982;8.890;2023-12-04T04:49:20;99016.09;;;0.08;78.51
49949;BME280;35840;45.982;8.890;2023-12-04T04:51:47;99021.13;;;0.13;78.03
49949;BME280;35840;45.982;8.890;2023-12-04T04:54:14;99013.47;;;0.22;76.41
49949;BME280;35840;45.982;8.890;2023-12-04T04:56:40;99012.66;;;0.20;76.96
49949;BME280;35840;45.982;8.890;2023-12-04T04:59:07;99011.16;;;-0.07;78.92
49949;BME280;35840;45.982;8.890;2023-12-04T05:01:34;99012.03;;;-0.10;79.46
49949;BME280;35840;45.982;8.890;2023-12-04T05:04:01;99009.47;;;-0.05;78.61
49949;BME280;35840;45.982;8.890;2023-12-04T05:06:29;99007.72;;;0.03;77.95
49949;BME280;35840;45.982;8.890;2023-12-04T05:08:57;99008.41;;;0.21;77.36
49949;BME280;35840;45.982;8.890;2023-12-04T05:11:23;99005.88;;;0.24;76.25
49949;BME280;35840;45.982;8.890;2023-12-04T05:13:50;98994.94;;;0.22;76.25
49949;BME280;35840;45.982;8.890;2023-12-04T05:16:17;98999.06;;;0.32;76.59
49949;BME280;35840;45.982;8.890;2023-12-04T05:18:44;99004.97;;;0.31;76.53
49949;BME280;35840;45.982;8.890;2023-12-04T05:21:12;98999.88;;;0.37;76.81
49949;BME280;35840;45.982;8.890;2023-12-04T05:23:39;98993.91;;;0.40;76.67
49949;BME280;35840;45.982;8.890;2023-12-04T05:26:06;98995.56;;;0.44;76.38
49949;BME280;35840;45.982;8.890;2023-12-04T05:28:34;98988.09;;;0.33;76.81
49949;BME280;35840;45.982;8.890;2023-12-04T05:31:01;98989.75;;;0.34;76.90
49949;BME280;35840;45.982;8.890;2023-12-04T05:33:28;98978.00;;;0.31;77.97
49949;BME280;35840;45.982;8.890;2023-12-04T05:35:55;98988.00;;;0.42;77.50
49949;BME280;35840;45.982;8.890;2023-12-04T05:38:22;98984.63;;;0.43;77.92
49949;BME280;35840;45.982;8.890;2023-12-04T05:40:49;98983.94;;;0.26;78.42
49949;BME280;35840;45.982;8.890;2023-12-04T05:43:15;98993.19;;;0.31;78.46
49949;BME280;35840;45.982;8.890;2023-12-04T05:45:42;98994.78;;;0.39;78.23
49949;BME280;35840;45.982;8.890;2023-12-04T05:48:09;98989.69;;;0.43;78.18
49949;BME280;35840;45.982;8.890;2023-12-04T05:50:36;98987.16;;;0.43;77.47
49949;BME280;35840;45.982;8.890;2023-12-04T05:53:03;98985.41;;;0.50;76.71
49949;BME280;35840;45.982;8.890;2023-12-04T05:55:30;98977.88;;;0.44;77.64
49949;BME280;35840;45.982;8.890;2023-12-04T05:57:57;98977.09;;;0.34;79.53
49949;BME280;35840;45.982;8.890;2023-12-04T06:00:23;98978.75;;;0.43;79.24
49949;BME280;35840;45.982;8.890;2023-12-04T06:02:54;98969.47;;;0.40;78.36
49949;BME280;35840;45.982;8.890;2023-12-04T06:05:21;98980.31;;;0.55;77.92
49949;BME280;35840;45.982;8.890;2023-12-04T06:07:50;98974.44;;;0.49;77.32
49949;BME280;35840;45.982;8.890;2023-12-04T06:10:16;98975.38;;;0.41;78.41
49949;BME280;35840;45.982;8.890;2023-12-04T06:12:43;98977.13;;;0.31;79.72
49949;BME280;35840;45.982;8.890;2023-12-04T06:15:10;98965.31;;;0.36;80.08
49949;BME280;35840;45.982;8.890;2023-12-04T06:17:37;98978.69;;;0.47;79.76
49949;BME280;35840;45.982;8.890;2023-12-04T06:20:05;98972.06;;;0.36;79.48
49949;BME280;35840;45.982;8.890;2023-12-04T06:22:33;98971.16;;;0.43;80.07
49949;BME280;35840;45.982;8.890;2023-12-04T06:25:00;98971.03;;;0.54;79.15
49949;BME280;35840;45.982;8.890;2023-12-04T06:27:28;98969.28;;;0.62;78.29
49949;BME280;35840;45.982;8.890;2023-12-04T06:29:55;98964.22;;;0.60;77.79
49949;BME280;35840;45.982;8.890;2023-12-04T06:32:22;98974.31;;;0.62;77.77
49949;BME280;35840;45.982;8.890;2023-12-04T06:34:49;98965.88;;;0.64;77.83
49949;BME280;35840;45.982;8.890;2023-12-04T06:37:16;98980.38;;;0.47;80.10
49949;BME280;35840;45.982;8.890;2023-12-04T06:39:45;98977.88;;;0.47;80.19
49949;BME280;35840;45.982;8.890;2023-12-04T06:42:14;98981.25;;;0.44;80.26
49949;BME280;35840;45.982;8.890;2023-12-04T06:44:41;98974.50;;;0.43;80.44
49949;BME280;35840;45.982;8.890;2023-12-04T06:47:09;98988.78;;;0.50;80.08
49949;BME280;35840;45.982;8.890;2023-12-04T06:49:36;98982.88;;;0.51;79.83
49949;BME280;35840;45.982;8.890;2023-12-04T06:52:03;98977.75;;;0.58;79.67
49949;BME280;35840;45.982;8.890;2023-12-04T06:54:30;98980.22;;;0.62;79.09
49949;BME280;35840;45.982;8.890;2023-12-04T06:56:57;98976.94;;;0.51;79.54
49949;BME280;35840;45.982;8.890;2023-12-04T06:59:24;98979.50;;;0.48;80.06
49949;BME280;35840;45.982;8.890;2023-12-04T07:01:51;98984.56;;;0.53;80.07
49949;BME280;35840;45.982;8.890;2023-12-04T07:04:18;98989.53;;;0.59;79.70
49949;BME280;35840;45.982;8.890;2023-12-04T07:06:48;98975.88;;;0.74;78.34
49949;BME280;35840;45.982;8.890;2023-12-04T07:09:15;98969.22;;;0.65;78.67
49949;BME280;35840;45.982;8.890;2023-12-04T07:11:45;98981.97;;;0.59;79.78
49949;BME280;35840;45.982;8.890;2023-12-04T07:14:12;98976.09;;;0.54;80.30
49949;BME280;35840;45.982;8.890;2023-12-04T07:16:41;98970.25;;;0.50;80.56
49949;BME280;35840;45.982;8.890;2023-12-04T07:19:09;98966.78;;;0.57;80.78
49949;BME280;35840;45.982;8.890;2023-12-04T07:21:37;98963.34;;;0.64;80.27
49949;BME280;35840;45.982;8.890;2023-12-04T07:24:04;98963.22;;;0.77;78.32
49949;BME280;35840;45.982;8.890;2023-12-04T07:26:33;98965.78;;;0.75;78.50
49949;BME280;35840;45.982;8.890;2023-12-04T07:29:00;98965.75;;;0.77;78.52
49949;BME280;35840;45.982;8.890;2023-12-04T07:31:27;98953.94;;;0.77;78.32
49949;BME280;35840;45.982;8.890;2023-12-04T07:33:54;98950.53;;;0.78;77.66
49949;BME280;35840;45.982;8.890;2023-12-04T07:36:22;98939.56;;;0.81;77.55
49949;BME280;35840;45.982;8.890;2023-12-04T07:38:49;98949.72;;;0.75;79.60
49949;BME280;35840;45.982;8.890;2023-12-04T07:41:17;98943.94;;;0.63;80.80
49949;BME280;35840;45.982;8.890;2023-12-04T07:43:45;98964.31;;;0.54;81.25
49949;BME280;35840;45.982;8.890;2023-12-04T07:46:12;98950.06;;;0.41;82.26
49949;BME280;35840;45.982;8.890;2023-12-04T07:48:40;98954.34;;;0.34;81.55
49949;BME280;35840;45.982;8.890;2023-12-04T07:51:07;98961.94;;;0.34;81.12
49949;BME280;35840;45.982;8.890;2023-12-04T07:53:34;98973.56;;;0.54;80.43
49949;BME280;35840;45.982;8.890;2023-12-04T07:56:01;98962.56;;;0.58;80.67
49949;BME280;35840;45.982;8.890;2023-12-04T07:58:31;98965.16;;;0.53;81.28
49949;BME280;35840;45.982;8.890;2023-12-04T08:00:58;98966.81;;;0.54;81.44
49949;BME280;35840;45.982;8.890;2023-12-04T08:03:26;98979.34;;;0.65;81.41
49949;BME280;35840;45.982;8.890;2023-12-04T08:05:54;98969.94;;;0.76;80.52
49949;BME280;35840;45.982;8.890;2023-12-04T08:08:21;98972.44;;;0.82;79.95
49949;BME280;35840;45.982;8.890;2023-12-04T08:10:48;98985.25;;;0.67;79.66
49949;BME280;35840;45.982;8.890;2023-12-04T08:13:15;98976.81;;;0.65;79.77
49949;BME280;35840;45.982;8.890;2023-12-04T08:15:43;98966.69;;;0.70;79.96
49949;BME280;35840;45.982;8.890;2023-12-04T08:18:11;98971.72;;;0.71;80.94
49949;BME280;35840;45.982;8.890;2023-12-04T08:20:38;98982.66;;;0.73;81.81
49949;BME280;35840;45.982;8.890;2023-12-04T08:23:07;98976.78;;;0.71;82.51
49949;BME280;35840;45.982;8.890;2023-12-04T08:25:35;98973.28;;;0.81;81.46
49949;BME280;35840;45.982;8.890;2023-12-04T08:28:04;98959.66;;;0.92;80.18
49949;BME280;35840;45.982;8.890;2023-12-04T08:30:31;98963.75;;;1.02;79.11
49949;BME280;35840;45.982;8.890;2023-12-04T08:32:58;98958.63;;;1.10;78.43
49949;BME280;35840;45.982;8.890;2023-12-04T08:35:25;98947.56;;;1.17;77.69
49949;BME280;35840;45.982;8.890;2023-12-04T08:37:53;98944.09;;;1.23;77.87
49949;BME280;35840;45.982;8.890;2023-12-04T08:40:20;98941.66;;;1.16;78.10
49949;BME280;35840;45.982;8.890;2023-12-04T08:42:47;98956.16;;;1.02;80.77
49949;BME280;35840;45.982;8.890;2023-12-04T08:45:14;98964.03;;;0.79;80.31
49949;BME280;35840;45.982;8.890;2023-12-04T08:47:44;98964.94;;;0.73;80.64
49949;BME280;35840;45.982;8.890;2023-12-04T08:50:11;98948.09;;;0.69;80.62
49949;BME280;35840;45.982;8.890;2023-12-04T08:52:38;98962.47;;;0.68;81.62
49949;BME280;35840;45.982;8.890;2023-12-04T08:55:10;98953.91;;;0.79;80.38
49949;BME280;35840;45.982;8.890;2023-12-04T08:57:37;98947.13;;;0.79;79.68
49949;BME280;35840;45.982;8.890;2023-12-04T09:00:05;98946.97;;;0.95;79.21
49949;BME280;35840;45.982;8.890;2023-12-04T09:02:32;98932.63;;;0.97;78.26
49949;BME280;35840;45.982;8.890;2023-12-04T09:04:59;98951.09;;;1.03;78.97
49949;BME280;35840;45.982;8.890;2023-12-04T09:07:26;98929.13;;;1.06;79.34
49949;BME280;35840;45.982;8.890;2023-12-04T09:10:14;98935.94;;;0.99;79.09
49949;BME280;35840;45.982;8.890;2023-12-04T09:13:01;98946.97;;;0.95;78.84
49949;BME280;35840;45.982;8.890;2023-12-04T09:15:28;98939.34;;;0.99;78.71
49949;BME280;35840;45.982;8.890;2023-12-04T09:17:55;98951.00;;;1.10;77.74
49949;BME280;35840;45.982;8.890;2023-12-04T09:20:23;98945.91;;;1.13;77.00
49949;BME280;35840;45.982;8.890;2023-12-04T09:22:50;98941.75;;;1.09;77.09
49949;BME280;35840;45.982;8.890;2023-12-04T09:25:23;98956.88;;;1.13;77.59
49949;BME280;35840;45.982;8.890;2023-12-04T09:27:50;98947.66;;;1.06;78.20
49949;BME280;35840;45.982;8.890;2023-12-04T09:30:17;98952.69;;;1.11;79.37
49949;BME280;35840;45.982;8.890;2023-12-04T09:32:45;98958.56;;;1.13;79.97
49949;BME280;35840;45.982;8.890;2023-12-04T09:35:12;98940.03;;;1.12;79.82
49949;BME280;35840;45.982;8.890;2023-12-04T09:37:39;98944.22;;;1.12;79.98
49949;BME280;35840;45.982;8.890;2023-12-04T09:40:06;98939.09;;;1.18;79.90
49949;BME280;35840;45.982;8.890;2023-12-04T09:42:35;98936.50;;;1.23;79.45
49949;BME280;35840;45.982;8.890;2023-12-04T09:45:02;98927.22;;;1.22;79.52
49949;BME280;35840;45.982;8.890;2023-12-04T09:47:29;98931.44;;;1.23;79.29
49949;BME280;35840;45.982;8.890;2023-12-04T09:49:59;98937.34;;;1.22;79.51
49949;BME280;35840;45.982;8.890;2023-12-04T09:52:27;98934.06;;;1.13;79.66
49949;BME280;35840;45.982;8.890;2023-12-04T09:54:54;98943.28;;;1.20;79.63
49949;BME280;35840;45.982;8.890;2023-12-04T09:57:23;98943.22;;;1.25;78.60
49949;BME280;35840;45.982;8.890;2023-12-04T09:59:51;98933.97;;;1.23;78.25
49949;BME280;35840;45.982;8.890;2023-12-04T10:02:19;98945.78;;;1.24;77.92
49949;BME280;35840;45.982;8.890;2023-12-04T10:04:46;98940.72;;;1.24;77.79
49949;BME280;35840;45.982;8.890;2023-12-04T10:07:13;98948.28;;;1.25;78.10
49949;BME280;35840;45.982;8.890;2023-12-04T10:09:41;98942.41;;;1.23;79.56
49949;BME280;35840;45.982;8.890;2023-12-04T10:12:09;98934.06;;;1.16;80.54
49949;BME280;35840;45.982;8.890;2023-12-04T10:14:36;98940.00;;;1.14;79.50
49949;BME280;35840;45.982;8.890;2023-12-04T10:17:16;98944.28;;;1.09;78.88
49949;BME280;35840;45.982;8.890;2023-12-04T10:19:44;98932.53;;;1.03;78.94
49949;BME280;35840;45.982;8.890;2023-12-04T10:22:11;98935.81;;;1.10;78.36
49949;BME280;35840;45.982;8.890;2023-12-04T10:24:40;98927.38;;;1.11;78.27
49949;BME280;35840;45.982;8.890;2023-12-04T10:27:09;98926.47;;;1.16;78.00
49949;BME280;35840;45.982;8.890;2023-12-04T10:29:47;98911.19;;;1.23;77.63
49949;BME280;35840;45.982;8.890;2023-12-04T10:32:19;98903.50;;;1.27;77.11
49949;BME280;35840;45.982;8.890;2023-12-04T10:34:48;98898.41;;;1.32;77.26
49949;BME280;35840;45.982;8.890;2023-12-04T10:37:15;98881.53;;;1.31;76.99
49949;BME280;35840;45.982;8.890;2023-12-04T10:39:51;98899.06;;;1.43;77.84
49949;BME280;35840;45.982;8.890;2023-12-04T10:42:26;98898.34;;;1.35;80.04
49949;BME280;35840;45.982;8.890;2023-12-04T10:44:57;98901.72;;;1.35;80.03
49949;BME280;35840;45.982;8.890;2023-12-04T10:47:25;98901.59;;;1.42;79.81
49949;BME280;35840;45.982;8.890;2023-12-04T10:49:52;98879.81;;;1.31;79.63
49949;BME280;35840;45.982;8.890;2023-12-04T10:52:19;98889.78;;;1.44;80.20
49949;BME280;35840;45.982;8.890;2023-12-04T10:54:50;98890.53;;;1.50;80.59
49949;BME280;35840;45.982;8.890;2023-12-04T10:57:40;98882.00;;;1.56;79.96
49949;BME280;35840;45.982;8.890;2023-12-04T11:00:11;98860.75;;;1.63;79.12
49949;BME280;35840;45.982;8.890;2023-12-04T11:02:41;98857.22;;;1.74;78.51
49949;BME280;35840;45.982;8.890;2023-12-04T11:05:15;98851.31;;;1.71;78.38
49949;BME280;35840;45.982;8.890;2023-12-04T11:07:48;98843.72;;;1.71;77.88
49949;BME280;35840;45.982;8.890;2023-12-04T11:10:45;98827.03;;;1.60;77.32
49949;BME280;35840;45.982;8.890;2023-12-04T11:13:32;98826.16;;;1.61;76.06
49949;BME280;35840;45.982;8.890;2023-12-04T11:16:05;98816.88;;;1.60;74.81
49949;BME280;35840;45.982;8.890;2023-12-04T11:18:36;98806.06;;;1.50;74.44
49949;BME280;35840;45.982;8.890;2023-12-04T11:21:10;98801.06;;;1.47;74.46
49949;BME280;35840;45.982;8.890;2023-12-04T11:23:37;98807.78;;;1.49;74.71
49949;BME280;35840;45.982;8.890;2023-12-04T11:26:07;98801.81;;;1.52;74.76
49949;BME280;35840;45.982;8.890;2023-12-04T11:28:35;98791.75;;;1.47;74.94
49949;BME280;35840;45.982;8.890;2023-12-04T11:31:06;98792.44;;;1.55;74.35
49949;BME280;35840;45.982;8.890;2023-12-04T11:33:36;98795.84;;;1.54;73.55
49949;BME280;35840;45.982;8.890;2023-12-04T11:36:13;98795.00;;;1.55;73.37
49949;BME280;35840;45.982;8.890;2023-12-04T11:38:46;98787.38;;;1.55;72.91
49949;BME280;35840;45.982;8.890;2023-12-04T11:41:25;98792.31;;;1.65;73.81
49949;BME280;35840;45.982;8.890;2023-12-04T11:43:56;98778.75;;;1.67;73.15
49949;BME280;35840;45.982;8.890;2023-12-04T11:46:28;98796.28;;;1.78;72.25
49949;BME280;35840;45.982;8.890;2023-12-04T11:49:26;98780.47;;;1.65;71.66
49949;BME280;35840;45.982;8.890;2023-12-04T11:51:56;98761.28;;;1.52;71.24
49949;BME280;35840;45.982;8.890;2023-12-04T11:54:26;98779.66;;;1.63;71.44
49949;BME280;35840;45.982;8.890;2023-12-04T11:59:39;98761.03;;;1.64;71.64
49949;BME280;35840;45.982;8.890;2023-12-04T12:02:07;98781.88;;;1.82;71.60
49949;BME280;35840;45.982;8.890;2023-12-04T12:04:35;98770.75;;;1.89;72.74
49949;BME280;35840;45.982;8.890;2023-12-04T12:07:03;98769.00;;;1.91;73.40
49949;BME280;35840;45.982;8.890;2023-12-04T12:09:35;98758.97;;;1.86;74.67
49949;BME280;35840;45.982;8.890;2023-12-04T12:12:03;98759.69;;;1.93;73.49
49949;BME280;35840;45.982;8.890;2023-12-04T12:14:31;98760.44;;;1.98;73.12
49949;BME280;35840;45.982;8.890;2023-12-04T12:16:59;98723.25;;;1.99;71.65
49949;BME280;35840;45.982;8.890;2023-12-04T12:19:27;98732.38;;;2.08;72.20
49949;BME280;35840;45.982;8.890;2023-12-04T12:21:54;98732.34;;;2.09;71.24
49949;BME280;35840;45.982;8.890;2023-12-04T12:24:23;98739.78;;;2.17;70.81
49949;BME280;35840;45.982;8.890;2023-12-04T12:26:50;98728.72;;;2.19;71.05
49949;BME280;35840;45.982;8.890;2023-12-04T12:29:17;98732.03;;;2.24;70.42
49949;BME280;35840;45.982;8.890;2023-12-04T12:31:44;98721.13;;;2.19;70.24
49949;BME280;35840;45.982;8.890;2023-12-04T12:34:14;98706.13;;;2.10;69.90
49949;BME280;35840;45.982;8.890;2023-12-04T12:36:41;98714.63;;;2.08;68.66
49949;BME280;35840;45.982;8.890;2023-12-04T12:39:08;98716.19;;;2.13;69.85
49949;BME280;35840;45.982;8.890;2023-12-04T12:41:36;98715.28;;;2.16;70.26
49949;BME280;35840;45.982;8.890;2023-12-04T12:44:02;98707.13;;;2.01;70.38
49949;BME280;35840;45.982;8.890;2023-12-04T12:46:30;98723.06;;;2.06;70.97
49949;BME280;35840;45.982;8.890;2023-12-04T12:48:57;98712.22;;;2.00;69.90
49949;BME280;35840;45.982;8.890;2023-12-04T12:51:26;98712.88;;;2.10;70.87
49949;BME280;35840;45.982;8.890;2023-12-04T12:53:53;98704.50;;;2.06;71.06
49949;BME280;35840;45.982;8.890;2023-12-04T12:56:20;98714.66;;;2.06;71.10
49949;BME280;35840;45.982;8.890;2023-12-04T12:58:48;98704.41;;;2.11;70.88
49949;BME280;35840;45.982;8.890;2023-12-04T13:01:16;98706.88;;;2.14;70.74
49949;BME280;35840;45.982;8.890;2023-12-04T13:03:45;98695.13;;;2.10;70.91
49949;BME280;35840;45.982;8.890;2023-12-04T13:06:14;98703.50;;;2.13;70.97
49949;BME280;35840;45.982;8.890;2023-12-04T13:08:41;98701.78;;;2.14;70.92
49949;BME280;35840;45.982;8.890;2023-12-04T13:11:08;98682.41;;;2.11;71.29
49949;BME280;35840;45.982;8.890;2023-12-04T13:13:35;98692.53;;;2.11;72.14
49949;BME280;35840;45.982;8.890;2023-12-04T13:16:02;98692.59;;;2.10;71.83
49949;BME280;35840;45.982;8.890;2023-12-04T13:18:29;98696.16;;;2.01;70.66